Time;durP1;ratioP1;P1;durP2;ratioP2;P2;SDS_P1;SDS_P2;PMS_P1;PMS_P2;Temp;Humidity;BMP_temperature;BMP_pressure;BME280_temperature;BME280_humidity;BME280_pressure;Samples;Min_cycle;Max_cycle;Signal;HPM_P1;HPM_P2
2021/07/06 00:02:18;;;;;;;10.57;4.10;;;;;;;;;;4877476;29;20025;-91
2021/07/06 00:04:45;;;;;;;12.10;7.57;;;;;;;;;;4881710;29;20033;-90
2021/07/06 00:07:11;;;;;;;10.40;3.58;;;;;;;;;;4882922;29;20028;-90
2021/07/06 00:09:37;;;;;;;12.27;7.63;;;;;;;;;;4881391;29;20089;-90
2021/07/06 00:12:04;;;;;;;10.63;7.43;;;;;;;;;;4881475;29;20029;-90
2021/07/06 00:14:29;;;;;;;10.40;7.65;;;;;;;;;;4881103;29;20049;-90
2021/07/06 00:16:55;;;;;;;9.05;7.32;;;;;;;;;;4881446;29;20025;-91
2021/07/06 00:19:21;;;;;;;9.40;6.03;;;;;;;;;;4881258;29;20128;-92
2021/07/06 00:21:47;;;;;;;7.95;4.72;;;;;;;;;;4881491;29;20389;-92
2021/07/06 00:24:12;;;;;;;11.27;4.07;;;;;;;;;;4882561;29;20096;-92
2021/07/06 00:26:38;;;;;;;10.32;4.65;;;;;;;;;;4881392;29;20029;-92
2021/07/06 00:29:03;;;;;;;9.52;7.47;;;;;;;;;;4882863;29;20104;-91
2021/07/06 00:31:29;;;;;;;10.20;7.20;;;;;;;;;;4881126;29;20041;-92
2021/07/06 00:33:55;;;;;;;13.77;8.18;;;;;;;;;;4882547;29;20029;-91
2021/07/06 00:36:21;;;;;;;11.60;6.82;;;;;;;;;;4881036;29;20169;-94
2021/07/06 00:38:46;;;;;;;7.05;3.72;;;;;;;;;;4881637;29;20037;-92
2021/07/06 00:41:13;;;;;;;9.57;7.47;;;;;;;;;;4881179;29;20543;-90
2021/07/06 00:43:39;;;;;;;8.80;4.03;;;;;;;;;;4881334;29;20029;-91
2021/07/06 00:46:06;;;;;;;8.88;3.53;;;;;;;;;;4880699;29;20508;-90
2021/07/06 00:48:32;;;;;;;9.60;6.90;;;;;;;;;;4881258;29;20124;-91
2021/07/06 00:50:58;;;;;;;9.23;6.25;;;;;;;;;;4881898;29;20076;-91
2021/07/06 00:53:24;;;;;;;9.23;6.93;;;;;;;;;;4881191;29;20039;-91
2021/07/06 00:55:53;;;;;;;8.75;6.63;;;;;;;;;;4880685;29;20033;-91
2021/07/06 00:58:19;;;;;;;8.38;3.17;;;;;;;;;;4880548;29;20545;-90
2021/07/06 01:00:45;;;;;;;9.00;5.95;;;;;;;;;;4880633;29;20037;-92
2021/07/06 01:03:11;;;;;;;10.73;2.92;;;;;;;;;;4881087;29;20033;-91
2021/07/06 01:05:38;;;;;;;9.50;6.35;;;;;;;;;;4881825;29;20458;-92
2021/07/06 01:08:05;;;;;;;6.82;5.95;;;;;;;;;;4880715;29;20132;-92
2021/07/06 01:10:31;;;;;;;7.63;3.28;;;;;;;;;;4881848;29;20037;-91
2021/07/06 01:12:57;;;;;;;9.18;5.93;;;;;;;;;;4880707;29;20084;-91
2021/07/06 01:15:25;;;;;;;6.28;3.08;;;;;;;;;;4880669;29;20053;-91
2021/07/06 01:18:19;;;;;;;8.98;6.53;;;;;;;;;;4880511;29;20153;-92
2021/07/06 01:20:48;;;;;;;9.10;7.15;;;;;;;;;;4879085;29;20044;-92
2021/07/06 01:23:16;;;;;;;8.02;3.45;;;;;;;;;;4880649;29;20029;-92
2021/07/06 01:25:42;;;;;;;10.68;3.90;;;;;;;;;;4881834;29;20029;-90
2021/07/06 01:28:08;;;;;;;10.63;6.22;;;;;;;;;;4881000;29;20021;-91
2021/07/06 01:30:36;;;;;;;9.45;6.70;;;;;;;;;;4881566;29;20029;-91
2021/07/06 01:33:03;;;;;;;11.45;7.47;;;;;;;;;;4880563;29;20036;-91
2021/07/06 01:35:30;;;;;;;12.68;7.60;;;;;;;;;;4881939;29;20486;-90
2021/07/06 01:37:58;;;;;;;8.38;6.15;;;;;;;;;;4881378;29;20535;-91
2021/07/06 01:40:26;;;;;;;10.07;6.95;;;;;;;;;;4880140;29;20025;-91
2021/07/06 01:42:53;;;;;;;9.43;7.20;;;;;;;;;;4879995;29;20033;-91
2021/07/06 01:45:24;;;;;;;11.18;8.15;;;;;;;;;;4880122;29;20029;-91
2021/07/06 01:47:53;;;;;;;7.85;6.47;;;;;;;;;;4879740;29;20053;-91
2021/07/06 01:50:31;;;;;;;7.72;6.53;;;;;;;;;;4880080;29;20040;-90
2021/07/06 01:53:00;;;;;;;8.43;5.95;;;;;;;;;;4881546;29;20033;-90
2021/07/06 01:55:34;;;;;;;7.18;3.20;;;;;;;;;;4879640;29;20112;-92
2021/07/06 01:58:03;;;;;;;9.77;6.25;;;;;;;;;;4879636;29;20029;-91
2021/07/06 02:00:32;;;;;;;7.65;6.35;;;;;;;;;;4881428;29;20025;-90
2021/07/06 02:03:01;;;;;;;10.00;7.07;;;;;;;;;;4880780;29;20029;-91
2021/07/06 02:05:44;;;;;;;8.85;7.18;;;;;;;;;;4880673;29;20116;-90
2021/07/06 02:08:13;;;;;;;10.50;3.97;;;;;;;;;;4880599;29;20025;-91
2021/07/06 02:10:41;;;;;;;9.15;6.82;;;;;;;;;;4879246;29;20037;-91
2021/07/06 02:13:18;;;;;;;9.80;7.03;;;;;;;;;;4880863;29;20485;-91
2021/07/06 02:15:45;;;;;;;9.98;6.88;;;;;;;;;;4879654;29;20136;-90
2021/07/06 02:18:17;;;;;;;9.63;4.50;;;;;;;;;;4879383;29;20367;-90
2021/07/06 02:20:44;;;;;;;9.77;6.45;;;;;;;;;;4880650;29;20127;-92
2021/07/06 02:23:10;;;;;;;10.70;8.15;;;;;;;;;;4880660;29;20033;-90
2021/07/06 02:25:35;;;;;;;7.47;4.15;;;;;;;;;;4880577;29;20037;-92
2021/07/06 02:28:01;;;;;;;11.07;6.93;;;;;;;;;;4880918;29;20021;-91
2021/07/06 02:30:29;;;;;;;11.32;8.25;;;;;;;;;;4879019;29;20100;-92
2021/07/06 02:32:54;;;;;;;8.77;3.88;;;;;;;;;;4880673;29;20040;-91
2021/07/06 02:35:21;;;;;;;10.35;7.85;;;;;;;;;;4880375;29;20021;-91
2021/07/06 02:37:47;;;;;;;12.95;6.97;;;;;;;;;;4878798;29;20036;-91
2021/07/06 02:40:15;;;;;;;12.45;8.10;;;;;;;;;;4880440;29;20029;-90
2021/07/06 02:42:42;;;;;;;9.45;4.15;;;;;;;;;;4878786;29;20025;-90
2021/07/06 02:45:11;;;;;;;12.15;4.70;;;;;;;;;;4878774;29;20035;-91
2021/07/06 02:47:37;;;;;;;12.38;7.72;;;;;;;;;;4878959;29;20032;-91
2021/07/06 02:50:07;;;;;;;7.85;3.50;;;;;;;;;;4878807;29;20478;-91
2021/07/06 02:52:33;;;;;;;10.55;8.75;;;;;;;;;;4879092;29;20470;-91
2021/07/06 02:54:58;;;;;;;12.27;4.45;;;;;;;;;;4878626;29;20033;-91
2021/07/06 02:57:36;;;;;;;10.48;8.13;;;;;;;;;;4878801;29;20272;-92
2021/07/06 03:00:11;;;;;;;9.85;3.97;;;;;;;;;;4879795;29;20481;-92
2021/07/06 03:02:37;;;;;;;11.95;8.40;;;;;;;;;;4878532;29;20029;-92
2021/07/06 03:05:08;;;;;;;10.48;7.63;;;;;;;;;;4878572;29;20033;-89
2021/07/06 03:07:35;;;;;;;9.93;8.02;;;;;;;;;;4878389;29;20035;-90
2021/07/06 03:10:09;;;;;;;10.63;5.28;;;;;;;;;;4878478;29;20405;-92
2021/07/06 03:12:38;;;;;;;11.10;7.45;;;;;;;;;;4878536;29;20140;-91
2021/07/06 03:15:15;;;;;;;11.43;5.82;;;;;;;;;;4880190;29;20405;-91
2021/07/06 03:17:41;;;;;;;9.45;4.60;;;;;;;;;;4879829;29;20065;-89
2021/07/06 03:20:39;;;;;;;10.07;4.43;;;;;;;;;;4881066;29;20061;-91
2021/07/06 03:23:12;;;;;;;11.88;8.55;;;;;;;;;;4881627;29;20085;-90
2021/07/06 03:25:40;;;;;;;11.43;8.23;;;;;;;;;;4879548;29;20093;-92
2021/07/06 03:28:06;;;;;;;10.35;5.57;;;;;;;;;;4878873;29;20036;-90
2021/07/06 03:30:34;;;;;;;9.18;4.28;;;;;;;;;;4878875;29;20033;-91
2021/07/06 03:33:02;;;;;;;11.55;7.07;;;;;;;;;;4879922;29;20033;-89
2021/07/06 03:35:28;;;;;;;13.00;7.43;;;;;;;;;;4878045;29;20029;-91
2021/07/06 03:37:55;;;;;;;12.25;8.48;;;;;;;;;;4880210;29;20057;-89
2021/07/06 03:40:21;;;;;;;13.32;6.78;;;;;;;;;;4879484;29;20430;-91
2021/07/06 03:42:48;;;;;;;11.07;8.30;;;;;;;;;;4878167;29;20111;-91
2021/07/06 03:45:15;;;;;;;11.07;8.82;;;;;;;;;;4878446;29;20104;-92
2021/07/06 03:47:41;;;;;;;11.95;8.27;;;;;;;;;;4880365;29;20131;-91
2021/07/06 03:50:11;;;;;;;11.20;8.32;;;;;;;;;;4878710;29;20033;-90
2021/07/06 03:52:36;;;;;;;13.50;8.68;;;;;;;;;;4880872;29;20037;-92
2021/07/06 03:55:04;;;;;;;10.65;8.27;;;;;;;;;;4878627;29;20037;-91
2021/07/06 03:57:29;;;;;;;11.38;8.20;;;;;;;;;;4878097;29;20021;-89
2021/07/06 04:00:01;;;;;;;9.02;4.30;;;;;;;;;;4879825;29;20507;-90
2021/07/06 04:02:27;;;;;;;14.02;8.57;;;;;;;;;;4879429;29;20036;-90
2021/07/06 04:04:52;;;;;;;13.27;8.57;;;;;;;;;;4878085;29;20029;-90
2021/07/06 04:07:18;;;;;;;9.55;5.13;;;;;;;;;;4879418;29;20040;-90
2021/07/06 04:09:44;;;;;;;12.35;9.30;;;;;;;;;;4879918;29;20037;-91
2021/07/06 04:12:11;;;;;;;14.27;9.27;;;;;;;;;;4879379;29;20101;-90
2021/07/06 04:14:36;;;;;;;10.88;4.75;;;;;;;;;;4882651;29;20073;-91
2021/07/06 04:17:02;;;;;;;9.75;4.28;;;;;;;;;;4881747;29;20056;-89
2021/07/06 04:19:28;;;;;;;12.82;8.80;;;;;;;;;;4882626;29;20025;-87
2021/07/06 04:21:54;;;;;;;13.50;5.90;;;;;;;;;;4881313;29;20029;-88
2021/07/06 04:24:19;;;;;;;10.60;8.10;;;;;;;;;;4885908;29;20052;-89
2021/07/06 04:26:45;;;;;;;13.77;9.00;;;;;;;;;;4887243;29;20547;-88
2021/07/06 04:29:11;;;;;;;11.05;8.73;;;;;;;;;;4872833;29;20053;-87
2021/07/06 04:31:37;;;;;;;11.05;7.25;;;;;;;;;;4871972;29;20386;-87
2021/07/06 04:34:03;;;;;;;13.77;9.30;;;;;;;;;;4850782;29;20033;-88
2021/07/06 04:36:29;;;;;;;12.93;9.02;;;;;;;;;;4849724;29;20078;-88
2021/07/06 04:38:55;;;;;;;9.75;4.03;;;;;;;;;;4864552;29;20553;-86
2021/07/06 04:41:50;;;;;;;9.48;5.40;;;;;;;;;;5112415;27;20385;-92
2021/07/06 04:44:16;;;;;;;11.93;6.35;;;;;;;;;;5111643;28;20097;-87
2021/07/06 04:46:42;;;;;;;10.45;4.38;;;;;;;;;;5127296;28;20360;-88
2021/07/06 04:49:08;;;;;;;9.15;6.05;;;;;;;;;;5127167;28;20020;-86
2021/07/06 04:51:34;;;;;;;7.78;3.95;;;;;;;;;;5111794;28;20028;-86
2021/07/06 04:54:00;;;;;;;9.68;4.95;;;;;;;;;;5111292;28;20093;-85
2021/07/06 04:56:27;;;;;;;7.13;4.43;;;;;;;;;;5127029;28;20024;-85
2021/07/06 04:58:53;;;;;;;8.02;4.68;;;;;;;;;;5127349;28;20068;-87
2021/07/06 05:01:20;;;;;;;8.43;5.60;;;;;;;;;;5111329;28;20024;-89
2021/07/06 05:03:47;;;;;;;10.98;5.70;;;;;;;;;;5111317;28;20020;-89
2021/07/06 05:06:16;;;;;;;8.48;4.30;;;;;;;;;;5111455;28;20020;-86
2021/07/06 05:08:41;;;;;;;9.90;5.38;;;;;;;;;;5111287;28;20024;-87
2021/07/06 05:11:07;;;;;;;9.13;4.35;;;;;;;;;;5111670;28;20015;-88
2021/07/06 05:13:33;;;;;;;10.20;6.80;;;;;;;;;;5126955;28;20487;-88
2021/07/06 05:15:59;;;;;;;11.00;6.57;;;;;;;;;;5109630;28;20031;-88
2021/07/06 05:18:24;;;;;;;13.85;6.90;;;;;;;;;;5126647;28;20063;-88
2021/07/06 05:20:50;;;;;;;12.73;5.93;;;;;;;;;;5098238;28;20032;-87
2021/07/06 05:23:15;;;;;;;11.43;6.72;;;;;;;;;;5097021;28;20028;-90
2021/07/06 05:25:41;;;;;;;13.63;7.78;;;;;;;;;;5089131;28;20078;-86
2021/07/06 05:28:09;;;;;;;15.52;6.93;;;;;;;;;;5104739;28;20114;-89
2021/07/06 05:30:36;;;;;;;12.30;8.10;;;;;;;;;;5118812;28;20025;-88
2021/07/06 05:33:02;;;;;;;13.13;7.90;;;;;;;;;;5089427;28;20020;-89
2021/07/06 05:35:27;;;;;;;11.63;7.00;;;;;;;;;;5090448;28;20038;-89
2021/07/06 05:37:53;;;;;;;12.80;8.40;;;;;;;;;;5097808;28;20031;-90
2021/07/06 05:40:19;;;;;;;12.02;7.18;;;;;;;;;;5108279;28;20522;-88
2021/07/06 05:42:45;;;;;;;11.73;8.10;;;;;;;;;;5103451;28;20060;-87
2021/07/06 05:45:12;;;;;;;12.88;7.65;;;;;;;;;;5090107;28;20483;-87
2021/07/06 05:47:38;;;;;;;11.88;7.40;;;;;;;;;;5089260;28;20069;-88
2021/07/06 05:50:14;;;;;;;14.60;7.47;;;;;;;;;;5103885;28;20119;-87
2021/07/06 05:52:40;;;;;;;14.80;9.10;;;;;;;;;;5077445;28;20539;-87
2021/07/06 05:55:08;;;;;;;14.63;8.30;;;;;;;;;;5089833;28;20033;-87
2021/07/06 05:57:35;;;;;;;11.80;6.85;;;;;;;;;;5089914;28;20499;-84
2021/07/06 06:00:08;;;;;;;10.70;7.50;;;;;;;;;;5106873;28;20039;-85
2021/07/06 06:02:33;;;;;;;14.27;6.30;;;;;;;;;;5094189;28;20046;-85
2021/07/06 06:04:59;;;;;;;11.48;7.10;;;;;;;;;;5090878;28;20460;-85
2021/07/06 06:07:25;;;;;;;10.52;8.00;;;;;;;;;;5083563;28;20020;-85
2021/07/06 06:09:51;;;;;;;10.90;7.45;;;;;;;;;;5092460;28;20031;-86
2021/07/06 06:12:17;;;;;;;9.95;6.13;;;;;;;;;;5076005;28;20048;-86
2021/07/06 06:14:43;;;;;;;11.43;5.63;;;;;;;;;;5075064;28;20032;-85
2021/07/06 06:17:09;;;;;;;11.02;6.30;;;;;;;;;;5076138;28;20021;-84
2021/07/06 06:19:36;;;;;;;11.52;6.90;;;;;;;;;;5075274;28;20028;-87
2021/07/06 06:22:02;;;;;;;13.07;7.57;;;;;;;;;;5076633;28;20027;-86
2021/07/06 06:24:28;;;;;;;10.85;5.40;;;;;;;;;;5084324;28;20206;-86
2021/07/06 06:26:54;;;;;;;11.85;7.00;;;;;;;;;;5083300;28;20503;-86
2021/07/06 06:29:19;;;;;;;12.77;6.22;;;;;;;;;;5096645;28;20103;-86
2021/07/06 06:32:06;;;;;;;9.85;6.45;;;;;;;;;;5096098;28;20059;-89
2021/07/06 06:34:32;;;;;;;10.55;6.57;;;;;;;;;;5094723;28;20047;-89
2021/07/06 06:36:57;;;;;;;9.50;5.68;;;;;;;;;;5111494;28;20032;-87
2021/07/06 06:39:24;;;;;;;10.35;6.15;;;;;;;;;;5095739;28;20028;-88
2021/07/06 06:41:50;;;;;;;7.70;4.72;;;;;;;;;;5097514;28;20028;-87
2021/07/06 06:44:17;;;;;;;8.85;4.38;;;;;;;;;;5112871;28;20414;-87
2021/07/06 06:46:43;;;;;;;7.03;3.55;;;;;;;;;;5095769;28;20039;-88
2021/07/06 06:49:08;;;;;;;5.90;3.50;;;;;;;;;;5094858;28;20031;-94
2021/07/06 06:51:34;;;;;;;8.30;5.32;;;;;;;;;;5111482;28;20032;-90
2021/07/06 06:54:01;;;;;;;8.88;4.95;;;;;;;;;;5111073;28;20057;-87
2021/07/06 06:56:28;;;;;;;8.00;4.45;;;;;;;;;;5096365;28;20066;-88
2021/07/06 06:58:54;;;;;;;6.18;3.75;;;;;;;;;;5096072;28;20101;-90
2021/07/06 07:01:20;;;;;;;6.30;3.15;;;;;;;;;;5113631;22;20082;-92
2021/07/06 07:03:46;;;;;;;7.03;4.45;;;;;;;;;;5035475;22;20032;-93
2021/07/06 07:06:12;;;;;;;8.15;5.53;;;;;;;;;;5048692;28;20033;-90
2021/07/06 07:08:38;;;;;;;9.35;4.82;;;;;;;;;;5060663;28;20123;-92
2021/07/06 07:11:04;;;;;;;8.82;5.20;;;;;;;;;;5061179;28;20037;-90
2021/07/06 07:13:30;;;;;;;9.00;4.97;;;;;;;;;;5080399;28;20032;-88
2021/07/06 07:15:56;;;;;;;8.82;6.07;;;;;;;;;;5056595;28;20029;-90
2021/07/06 07:18:21;;;;;;;7.18;4.97;;;;;;;;;;5047241;28;20359;-89
2021/07/06 07:20:48;;;;;;;8.07;5.53;;;;;;;;;;5055996;28;20032;-90
2021/07/06 07:23:17;;;;;;;9.68;6.03;;;;;;;;;;5071309;28;20559;-89
2021/07/06 07:25:42;;;;;;;8.68;4.63;;;;;;;;;;5053959;28;20526;-90
2021/07/06 07:28:09;;;;;;;9.00;4.05;;;;;;;;;;5053103;28;20021;-90
2021/07/06 07:30:37;;;;;;;9.73;5.68;;;;;;;;;;5054387;28;20048;-90
2021/07/06 07:33:03;;;;;;;9.23;5.75;;;;;;;;;;5053052;28;20024;-88
2021/07/06 07:35:28;;;;;;;10.02;6.03;;;;;;;;;;5057943;28;20020;-89
2021/07/06 07:37:54;;;;;;;8.95;5.57;;;;;;;;;;5074830;28;20499;-89
2021/07/06 07:40:20;;;;;;;9.77;5.97;;;;;;;;;;5074327;28;20025;-90
2021/07/06 07:42:48;;;;;;;11.05;6.53;;;;;;;;;;5073572;28;20028;-91
2021/07/06 07:45:14;;;;;;;9.50;6.40;;;;;;;;;;5073263;28;20021;-93
2021/07/06 07:47:47;;;;;;;11.23;6.10;;;;;;;;;;5074417;28;20090;-91
2021/07/06 07:50:13;;;;;;;8.85;6.28;;;;;;;;;;5072677;28;20020;-90
2021/07/06 07:52:39;;;;;;;9.00;6.32;;;;;;;;;;5064147;28;20024;-89
2021/07/06 07:55:06;;;;;;;10.65;6.13;;;;;;;;;;5055792;28;20029;-89
2021/07/06 07:57:32;;;;;;;10.38;5.95;;;;;;;;;;5073223;28;20376;-90
2021/07/06 07:59:59;;;;;;;10.13;6.53;;;;;;;;;;5075695;28;20025;-91
2021/07/06 08:02:25;;;;;;;9.57;5.93;;;;;;;;;;5068623;28;20021;-94
2021/07/06 08:04:52;;;;;;;8.65;4.75;;;;;;;;;;5085598;28;20047;-92
2021/07/06 08:07:32;;;;;;;11.23;7.38;;;;;;;;;;5085197;28;20020;-92
2021/07/06 08:09:59;;;;;;;9.63;6.15;;;;;;;;;;5079580;28;20115;-92
2021/07/06 08:12:29;;;;;;;10.57;6.18;;;;;;;;;;5093456;28;20058;-88
2021/07/06 08:14:55;;;;;;;11.18;6.70;;;;;;;;;;5081631;28;20017;-90
2021/07/06 08:17:20;;;;;;;10.90;7.28;;;;;;;;;;5077185;28;20029;-92
2021/07/06 08:19:46;;;;;;;10.30;6.90;;;;;;;;;;5081345;28;20020;-91
2021/07/06 08:22:18;;;;;;;11.15;6.28;;;;;;;;;;5089467;28;20024;-90
2021/07/06 08:24:44;;;;;;;10.60;6.15;;;;;;;;;;5091647;28;20032;-92
2021/07/06 08:27:13;;;;;;;9.57;5.88;;;;;;;;;;5073815;28;20120;-88
2021/07/06 08:29:39;;;;;;;9.60;6.15;;;;;;;;;;5065734;28;20036;-88
2021/07/06 08:32:09;;;;;;;10.50;6.93;;;;;;;;;;5063499;28;20119;-92
2021/07/06 08:34:35;;;;;;;7.63;4.63;;;;;;;;;;5061473;28;20060;-89
2021/07/06 08:37:01;;;;;;;9.60;6.88;;;;;;;;;;5057130;28;20461;-89
2021/07/06 08:39:27;;;;;;;7.78;4.13;;;;;;;;;;5054218;28;20085;-89
2021/07/06 08:41:53;;;;;;;7.68;4.10;;;;;;;;;;5054684;28;20398;-88
2021/07/06 08:44:21;;;;;;;8.73;4.22;;;;;;;;;;5057890;28;20025;-87
2021/07/06 08:46:49;;;;;;;6.43;4.05;;;;;;;;;;5044698;28;20025;-88
2021/07/06 08:49:18;;;;;;;7.30;5.15;;;;;;;;;;5034540;28;20087;-85
2021/07/06 08:51:48;;;;;;;10.52;5.10;;;;;;;;;;5037804;28;20120;-86
2021/07/06 08:54:14;;;;;;;6.47;4.68;;;;;;;;;;5041264;28;20509;-88
2021/07/06 08:56:39;;;;;;;8.88;6.47;;;;;;;;;;5036565;28;20039;-84
2021/07/06 08:59:05;;;;;;;9.48;5.32;;;;;;;;;;5038159;28;20087;-84
2021/07/06 09:01:31;;;;;;;7.65;4.60;;;;;;;;;;5049871;28;20029;-85
2021/07/06 09:04:00;;;;;;;7.97;5.03;;;;;;;;;;5053624;28;20021;-85
2021/07/06 09:06:28;;;;;;;9.48;6.15;;;;;;;;;;5079322;28;20069;-86
2021/07/06 09:09:19;;;;;;;9.82;7.25;;;;;;;;;;5097206;28;20297;-86
2021/07/06 09:12:12;;;;;;;13.07;7.47;;;;;;;;;;5098577;28;20028;-87
2021/07/06 09:18:17;;;;;;;10.43;7.32;;;;;;;;;;5105948;28;20036;-87
2021/07/06 09:20:57;;;;;;;24.35;10.57;;;;;;;;;;5109618;28;20046;-89
2021/07/06 09:23:58;;;;;;;9.93;7.30;;;;;;;;;;5059648;22;20038;-86
2021/07/06 09:26:29;;;;;;;14.27;8.07;;;;;;;;;;5060188;28;20090;-87
2021/07/06 09:29:02;;;;;;;12.65;9.27;;;;;;;;;;5108446;22;20056;-88
2021/07/06 09:31:38;;;;;;;12.20;7.80;;;;;;;;;;5114324;28;20036;-85
2021/07/06 09:34:14;;;;;;;12.52;8.02;;;;;;;;;;5113608;28;20046;-87
2021/07/06 09:36:45;;;;;;;12.27;7.47;;;;;;;;;;5109502;28;20012;-86
2021/07/06 09:46:18;;;;;;;11.00;8.57;;;;;;;;;;4967035;29;20050;-84
2021/07/06 09:49:05;;;;;;;12.45;8.57;;;;;;;;;;4944359;29;20023;-86
2021/07/06 09:55:38;;;;;;;14.95;9.82;;;;;;;;;;4944806;29;20595;-84
2021/07/06 09:58:04;;;;;;;15.43;9.10;;;;;;;;;;4956235;29;20454;-85
2021/07/06 10:00:33;;;;;;;11.48;8.00;;;;;;;;;;4940061;29;20031;-91
2021/07/06 10:03:00;;;;;;;9.48;6.93;;;;;;;;;;4956499;29;20039;-88
2021/07/06 10:05:27;;;;;;;11.90;8.35;;;;;;;;;;4956382;29;20027;-87
2021/07/06 10:07:54;;;;;;;12.73;7.53;;;;;;;;;;4955905;29;20027;-84
2021/07/06 10:10:21;;;;;;;12.88;7.68;;;;;;;;;;4956193;29;20040;-85
2021/07/06 10:12:48;;;;;;;10.98;8.05;;;;;;;;;;4955813;29;20076;-85
2021/07/06 10:15:16;;;;;;;10.77;6.65;;;;;;;;;;4956792;28;20031;-86
2021/07/06 10:17:43;;;;;;;10.45;6.68;;;;;;;;;;5017694;28;20030;-86
2021/07/06 10:20:24;;;;;;;12.38;6.85;;;;;;;;;;5017829;28;20040;-86
2021/07/06 10:22:52;;;;;;;14.45;7.88;;;;;;;;;;5041397;28;20033;-85
2021/07/06 10:25:37;;;;;;;10.55;7.28;;;;;;;;;;5080717;28;20016;-87
2021/07/06 10:28:13;;;;;;;13.05;7.38;;;;;;;;;;5080930;28;20035;-90
2021/07/06 10:30:44;;;;;;;9.38;7.10;;;;;;;;;;5078235;28;20047;-86
2021/07/06 10:33:20;;;;;;;9.35;6.20;;;;;;;;;;5083641;28;20130;-84
2021/07/06 10:35:48;;;;;;;11.07;7.32;;;;;;;;;;5087891;28;20017;-84
2021/07/06 10:38:39;;;;;;;10.25;7.25;;;;;;;;;;5092197;28;20161;-84
2021/07/06 10:41:06;;;;;;;10.43;7.32;;;;;;;;;;5084693;28;20061;-86
2021/07/06 10:43:48;;;;;;;10.80;6.13;;;;;;;;;;5086297;28;20094;-83
2021/07/06 10:46:19;;;;;;;9.73;6.75;;;;;;;;;;5083282;28;20090;-85
2021/07/06 10:48:49;;;;;;;13.20;7.88;;;;;;;;;;5090849;28;20110;-85
2021/07/06 10:51:35;;;;;;;11.93;7.90;;;;;;;;;;5094639;28;20556;-85
2021/07/06 10:54:05;;;;;;;11.98;7.95;;;;;;;;;;5094677;28;20028;-82
2021/07/06 10:56:35;;;;;;;9.70;6.82;;;;;;;;;;5096072;28;20081;-91
2021/07/06 10:59:04;;;;;;;12.77;8.52;;;;;;;;;;5096137;28;20050;-85
2021/07/06 11:01:36;;;;;;;11.68;8.27;;;;;;;;;;5095242;28;20058;-84
2021/07/06 11:04:08;;;;;;;13.48;8.75;;;;;;;;;;5095406;28;20029;-84
2021/07/06 11:06:46;;;;;;;13.93;6.72;;;;;;;;;;5095374;28;20020;-82
2021/07/06 11:09:18;;;;;;;12.48;9.27;;;;;;;;;;5093945;28;20069;-82
2021/07/06 11:11:44;;;;;;;13.30;8.40;;;;;;;;;;5095501;28;20020;-85
2021/07/06 11:14:27;;;;;;;15.35;7.45;;;;;;;;;;5095047;28;20101;-84
2021/07/06 11:16:58;;;;;;;10.20;6.18;;;;;;;;;;5093976;28;20100;-83
2021/07/06 11:19:33;;;;;;;11.18;6.22;;;;;;;;;;5084213;28;20024;-83
2021/07/06 11:22:13;;;;;;;10.57;7.60;;;;;;;;;;5095029;28;20039;-83
2021/07/06 11:24:47;;;;;;;12.48;9.05;;;;;;;;;;5094412;28;20460;-86
2021/07/06 11:27:34;;;;;;;12.68;7.43;;;;;;;;;;5093702;28;20061;-85
2021/07/06 11:30:24;;;;;;;12.68;7.63;;;;;;;;;;5089236;28;20052;-83
2021/07/06 11:33:16;;;;;;;9.63;6.15;;;;;;;;;;5087302;28;20108;-89
2021/07/06 11:35:47;;;;;;;10.70;7.32;;;;;;;;;;5085262;28;20024;-84
2021/07/06 11:38:17;;;;;;;11.35;8.65;;;;;;;;;;5087485;28;20040;-85
2021/07/06 11:40:45;;;;;;;11.80;9.30;;;;;;;;;;5087622;28;20051;-85
2021/07/06 11:43:15;;;;;;;14.85;10.32;;;;;;;;;;5086070;28;20463;-86
2021/07/06 11:45:40;;;;;;;12.52;7.78;;;;;;;;;;5091179;28;20033;-85
2021/07/06 11:48:12;;;;;;;11.20;7.95;;;;;;;;;;5072771;28;20027;-85
2021/07/06 11:50:42;;;;;;;12.95;7.32;;;;;;;;;;5075214;28;20017;-85
2021/07/06 11:53:08;;;;;;;;;;;;;;;;;;5078054;28;20027;-86
2021/07/06 11:55:35;;;;;;;13.55;5.43;;;;;;;;;;5085078;28;19896;-85
2021/07/06 11:58:04;;;;;;;9.70;6.43;;;;;;;;;;5096457;28;20028;-85
2021/07/06 12:00:35;;;;;;;11.55;7.28;;;;;;;;;;5097716;28;20032;-85
2021/07/06 12:03:16;;;;;;;10.88;8.10;;;;;;;;;;5097614;28;20080;-85
2021/07/06 12:05:43;;;;;;;12.55;7.63;;;;;;;;;;5094223;28;20024;-83
2021/07/06 12:08:18;;;;;;;10.52;6.18;;;;;;;;;;5096924;28;20039;-84
2021/07/06 12:10:51;;;;;;;11.27;7.53;;;;;;;;;;5095396;28;20024;-83
2021/07/06 12:13:17;;;;;;;11.43;7.78;;;;;;;;;;5094874;28;20035;-88
2021/07/06 12:15:45;;;;;;;10.75;6.05;;;;;;;;;;5092666;28;20020;-87
2021/07/06 12:18:31;;;;;;;10.60;6.47;;;;;;;;;;5095130;28;20023;-86
2021/07/06 12:21:04;;;;;;;9.57;6.68;;;;;;;;;;5095811;28;20082;-87
2021/07/06 12:23:31;;;;;;;10.68;6.53;;;;;;;;;;5091414;28;20103;-86
2021/07/06 12:25:59;;;;;;;11.55;7.80;;;;;;;;;;5098223;28;20053;-86
2021/07/06 12:28:26;;;;;;;9.95;6.13;;;;;;;;;;5098422;28;20024;-85
2021/07/06 12:31:30;;;;;;;10.40;6.07;;;;;;;;;;5096014;28;20487;-86
2021/07/06 12:34:15;;;;;;;10.73;6.03;;;;;;;;;;5093794;28;20024;-83
2021/07/06 12:36:55;;;;;;;9.55;6.57;;;;;;;;;;5086256;28;20041;-85
2021/07/06 12:39:26;;;;;;;13.07;7.80;;;;;;;;;;5085244;28;20092;-87
2021/07/06 12:42:04;;;;;;;8.32;6.22;;;;;;;;;;5089961;28;20035;-90
2021/07/06 12:44:31;;;;;;;12.63;5.20;;;;;;;;;;5085858;28;20020;-90
2021/07/06 12:47:16;;;;;;;11.40;7.22;;;;;;;;;;5093612;22;20028;-89
2021/07/06 12:53:05;;;;;;;10.75;5.63;;;;;;;;;;5181569;22;20086;-89
2021/07/06 12:55:34;;;;;;;8.60;5.30;;;;;;;;;;5094510;28;20040;-90
2021/07/06 12:58:46;;;;;;;9.48;6.80;;;;;;;;;;5093727;28;20016;-89
2021/07/06 13:04:13;;;;;;;15.02;7.30;;;;;;;;;;5888244;22;20067;-91
2021/07/06 13:06:39;;;;;;;9.38;5.45;;;;;;;;;;5074716;28;20032;-88
2021/07/06 13:09:05;;;;;;;7.97;5.22;;;;;;;;;;5079277;28;20050;-90
2021/07/06 13:11:34;;;;;;;8.55;5.15;;;;;;;;;;5080199;28;20062;-89
2021/07/06 13:14:18;;;;;;;11.38;8.90;;;;;;;;;;5080425;28;20478;-88
2021/07/06 13:16:44;;;;;;;11.77;6.80;;;;;;;;;;5097647;28;20062;-87
2021/07/06 13:19:25;;;;;;;10.68;7.72;;;;;;;;;;5098188;28;20024;-88
2021/07/06 13:21:52;;;;;;;9.73;5.93;;;;;;;;;;5098851;28;20033;-88
2021/07/06 13:24:18;;;;;;;11.10;6.68;;;;;;;;;;5098255;28;20020;-88
2021/07/06 13:26:44;;;;;;;9.65;7.47;;;;;;;;;;5080540;28;20028;-89
2021/07/06 13:29:10;;;;;;;10.63;6.43;;;;;;;;;;5098625;28;20483;-91
2021/07/06 13:31:39;;;;;;;8.45;5.45;;;;;;;;;;5082108;28;20034;-88
2021/07/06 13:34:05;;;;;;;9.38;6.20;;;;;;;;;;5084410;28;20020;-89
2021/07/06 13:36:31;;;;;;;9.88;5.22;;;;;;;;;;5101208;28;20027;-90
2021/07/06 13:38:57;;;;;;;10.85;6.75;;;;;;;;;;5100895;28;20417;-89
2021/07/06 13:41:23;;;;;;;11.38;5.95;;;;;;;;;;5081290;28;20028;-87
2021/07/06 13:43:58;;;;;;;9.63;6.45;;;;;;;;;;5401637;22;20015;-92
2021/07/06 13:50:00;;;;;;;;;;;;;;;;;;;;;
2021/07/06 13:52:46;;;;;;;13.23;7.18;;;;;;;;;;5016692;28;20048;-93
2021/07/06 13:58:12;;;;;;;12.27;6.63;;;;;;;;;;5017227;28;20135;-91
2021/07/06 14:03:29;;;;;;;13.20;6.78;;;;;;;;;;5016724;28;20061;-91
2021/07/06 14:06:19;;;;;;;10.00;8.45;;;;;;;;;;4999064;28;20091;-91
2021/07/06 14:08:45;;;;;;;13.05;8.82;;;;;;;;;;5014847;28;20060;-89
2021/07/06 14:11:16;;;;;;;8.98;6.22;;;;;;;;;;4998386;28;20536;-91
2021/07/06 14:13:44;;;;;;;11.65;7.13;;;;;;;;;;5014374;28;20038;-90
2021/07/06 14:16:09;;;;;;;11.57;7.45;;;;;;;;;;5003587;28;20493;-90
2021/07/06 14:18:35;;;;;;;11.30;7.22;;;;;;;;;;4994877;28;20121;-91
2021/07/06 14:21:01;;;;;;;12.35;8.88;;;;;;;;;;4978292;28;20034;-88
2021/07/06 14:23:30;;;;;;;11.95;6.45;;;;;;;;;;4994499;28;20034;-89
2021/07/06 14:25:55;;;;;;;10.90;8.25;;;;;;;;;;5035007;28;20040;-88
2021/07/06 14:28:21;;;;;;;12.10;7.35;;;;;;;;;;5076090;28;20025;-89
2021/07/06 14:30:47;;;;;;;11.95;7.40;;;;;;;;;;5075648;28;20082;-89
2021/07/06 14:33:13;;;;;;;10.60;7.32;;;;;;;;;;5057596;28;20467;-89
2021/07/06 14:35:39;;;;;;;11.75;9.20;;;;;;;;;;5057745;28;20032;-91
2021/07/06 14:38:10;;;;;;;11.80;6.45;;;;;;;;;;5076371;28;20024;-89
2021/07/06 14:40:36;;;;;;;9.85;6.38;;;;;;;;;;5057807;28;20028;-89
2021/07/06 14:43:23;;;;;;;;;;;;;;;;;;;;;
2021/07/06 14:45:49;;;;;;;11.98;8.00;;;;;;;;;;5075318;28;20040;-86
2021/07/06 14:48:15;;;;;;;10.35;7.47;;;;;;;;;;5075527;28;20447;-86
2021/07/06 14:50:42;;;;;;;12.90;8.45;;;;;;;;;;5057403;28;20441;-87
2021/07/06 14:53:09;;;;;;;11.55;7.20;;;;;;;;;;5075346;28;20051;-87
2021/07/06 14:55:35;;;;;;;10.82;7.40;;;;;;;;;;5058070;28;20032;-86
2021/07/06 14:58:07;;;;;;;11.68;8.13;;;;;;;;;;5077339;28;20052;-93
2021/07/06 15:00:34;;;;;;;10.60;8.20;;;;;;;;;;5063070;28;20056;-88
2021/07/06 15:03:29;;;;;;;11.23;9.90;;;;;;;;;;5072086;28;20028;-90
2021/07/06 15:05:55;;;;;;;8.02;6.40;;;;;;;;;;5060347;28;20040;-89
2021/07/06 15:08:20;;;;;;;7.25;4.57;;;;;;;;;;5073525;28;20124;-90
2021/07/06 15:10:46;;;;;;;7.85;4.05;;;;;;;;;;5074186;28;20025;-93
2021/07/06 15:13:12;;;;;;;6.00;4.28;;;;;;;;;;5040216;28;20068;-86
2021/07/06 15:15:37;;;;;;;5.25;3.55;;;;;;;;;;5057896;28;20080;-90
2021/07/06 15:18:05;;;;;;;5.10;3.05;;;;;;;;;;5076720;28;20044;-85
2021/07/06 15:20:32;;;;;;;5.82;3.67;;;;;;;;;;5076073;28;20032;-88
2021/07/06 15:23:00;;;;;;;4.43;2.45;;;;;;;;;;5074997;28;20069;-85